createdAt,value
2022-10-01T00:02:08.694Z,18.20
2022-10-01T00:04:37.791Z,18.30
2022-10-01T00:07:09.987Z,19.50
2022-10-01T00:09:38.411Z,18.90
2022-10-01T00:12:07.094Z,18.50
2022-10-01T00:14:38.653Z,17.40
2022-10-01T00:17:06.648Z,17.30
2022-10-01T00:19:34.577Z,18.10
2022-10-01T00:22:02.651Z,18.70
2022-10-01T00:24:30.723Z,17.60
2022-10-01T00:26:58.601Z,18.90
2022-10-01T00:29:26.590Z,18.60
2022-10-01T00:31:54.690Z,18.80
2022-10-01T00:34:22.643Z,19.10
2022-10-01T00:36:50.976Z,19.50
2022-10-01T00:39:19.524Z,18.80
2022-10-01T00:41:48.243Z,19.50
2022-10-01T00:44:37.157Z,19.80
2022-10-01T00:47:18.174Z,19.10
2022-10-01T00:49:47.780Z,19.70
2022-10-01T00:52:24.865Z,20.10
2022-10-01T00:55:03.199Z,19.80
2022-10-01T00:57:31.836Z,20.90
2022-10-01T01:00:03.996Z,20.20
2022-10-01T01:02:32.125Z,20.60
2022-10-01T01:05:00.941Z,19.60
2022-10-01T01:07:31.925Z,19.70
2022-10-01T01:10:02.464Z,19.50
2022-10-01T01:13:16.599Z,19.70
2022-10-01T01:15:50.662Z,18.90
2022-10-01T01:18:33.864Z,19.00
2022-10-01T01:21:21.881Z,19.70
2022-10-01T01:24:08.276Z,19.90
2022-10-01T01:26:48.250Z,20.50
2022-10-01T01:29:41.169Z,21.10
2022-10-01T01:32:15.169Z,19.50
2022-10-01T01:34:47.049Z,20.10
2022-10-01T01:37:19.787Z,20.10
2022-10-01T01:39:52.863Z,19.30
2022-10-01T01:42:37.372Z,19.30
2022-10-01T01:45:10.728Z,18.90
2022-10-01T01:47:42.318Z,19.20
2022-10-01T01:50:13.974Z,20.90
2022-10-01T01:52:42.042Z,21.10
2022-10-01T01:55:10.389Z,21.30
2022-10-01T01:57:41.973Z,21.20
2022-10-01T02:00:11.964Z,21.60
2022-10-01T02:02:44.310Z,21.50
2022-10-01T02:05:17.144Z,22.00
2022-10-01T02:08:09.587Z,21.50
2022-10-01T02:11:05.404Z,20.90
2022-10-01T02:13:42.131Z,20.20
2022-10-01T02:16:48.844Z,20.50
2022-10-01T02:19:19.792Z,20.20
2022-10-01T02:21:58.891Z,21.20
2022-10-01T02:24:33.811Z,20.90
2022-10-01T02:27:07.556Z,20.70
2022-10-01T02:29:37.813Z,20.70
2022-10-01T02:32:07.110Z,20.70
2022-10-01T02:34:35.250Z,21.80
2022-10-01T02:37:06.315Z,21.20
2022-10-01T02:39:36.693Z,22.50
2022-10-01T02:42:07.960Z,23.20
2022-10-01T02:44:40.742Z,23.90
2022-10-01T02:47:20.867Z,23.00
2022-10-01T02:49:49.988Z,22.90
2022-10-01T02:52:29.920Z,22.40
2022-10-01T02:55:31.993Z,22.40
2022-10-01T02:57:59.975Z,23.50
2022-10-01T03:00:28.870Z,23.30
2022-10-01T03:02:56.987Z,23.50
2022-10-01T03:05:24.943Z,25.70
2022-10-01T03:07:52.893Z,24.70
2022-10-01T03:10:21.353Z,23.90
2022-10-01T03:12:51.324Z,23.50
2022-10-01T03:15:19.740Z,23.70
2022-10-01T03:17:54.134Z,22.20
2022-10-01T03:20:22.589Z,21.80
2022-10-01T03:22:51.192Z,22.30
2022-10-01T03:25:19.229Z,21.80
2022-10-01T03:27:47.415Z,20.30
2022-10-01T03:30:15.540Z,20.80
2022-10-01T03:32:43.512Z,20.00
2022-10-01T03:35:11.655Z,21.40
2022-10-01T03:37:39.751Z,21.70
2022-10-01T03:40:08.523Z,20.00
2022-10-01T03:42:36.508Z,21.40
2022-10-01T03:45:04.754Z,21.20
2022-10-01T03:47:32.750Z,20.40
2022-10-01T03:50:00.719Z,20.50
2022-10-01T03:52:28.686Z,21.10
2022-10-01T03:54:56.653Z,21.90
2022-10-01T03:57:24.621Z,21.60
2022-10-01T03:59:52.797Z,20.40
2022-10-01T04:02:22.167Z,21.50
2022-10-01T04:04:51.296Z,20.10
2022-10-01T04:07:19.258Z,21.10
2022-10-01T04:09:47.126Z,20.90
2022-10-01T04:12:15.114Z,21.80
2022-10-01T04:14:43.065Z,22.10
2022-10-01T04:17:11.136Z,21.40
2022-10-01T04:19:39.264Z,20.90
2022-10-01T04:22:07.278Z,21.90
2022-10-01T04:24:35.184Z,21.40
2022-10-01T04:27:03.217Z,21.00
2022-10-01T04:29:31.183Z,21.60
2022-10-01T04:31:59.187Z,21.40
2022-10-01T04:34:47.190Z,21.00
2022-10-01T04:37:15.187Z,20.40
2022-10-01T04:39:43.139Z,21.90
2022-10-01T04:42:13.549Z,22.70
2022-10-01T04:44:42.015Z,21.10
2022-10-01T04:47:10.081Z,22.30
2022-10-01T04:49:38.170Z,23.40
2022-10-01T04:52:06.242Z,25.70
2022-10-01T04:54:34.209Z,28.80
2022-10-01T04:57:02.280Z,28.90
2022-10-01T04:59:30.460Z,27.20
2022-10-01T05:01:58.458Z,24.80
2022-10-01T05:04:27.615Z,23.60
2022-10-01T05:06:56.426Z,24.00
2022-10-01T05:09:24.575Z,23.90
2022-10-01T05:11:52.851Z,23.90
2022-10-01T05:14:22.555Z,22.50
2022-10-01T05:16:50.800Z,23.90
2022-10-01T05:19:18.804Z,23.70
2022-10-01T05:21:46.942Z,22.40
2022-10-01T05:24:16.480Z,22.20
2022-10-01T05:26:44.451Z,22.50
2022-10-01T05:29:15.369Z,22.90
2022-10-01T05:31:44.521Z,22.30
2022-10-01T05:34:12.761Z,21.10
2022-10-01T05:36:40.727Z,20.50
2022-10-01T05:39:08.899Z,22.10
2022-10-01T05:41:37.028Z,22.30
2022-10-01T05:44:06.377Z,23.20
2022-10-01T05:46:34.341Z,24.60
2022-10-01T05:49:02.256Z,24.30
2022-10-01T05:51:30.469Z,25.00
2022-10-01T05:54:02.214Z,23.30
2022-10-01T05:56:31.174Z,23.40
2022-10-01T05:58:59.815Z,22.30
2022-10-01T06:01:28.831Z,23.10
2022-10-01T06:03:56.979Z,23.20
2022-10-01T06:06:26.815Z,22.30
2022-10-01T06:08:55.174Z,23.40
2022-10-01T06:11:24.463Z,22.10
2022-10-01T06:13:52.852Z,22.20
2022-10-01T06:16:21.166Z,22.70
2022-10-01T06:18:49.779Z,23.60
2022-10-01T06:21:17.872Z,21.90
2022-10-01T06:23:47.079Z,22.30
2022-10-01T06:26:15.142Z,22.80
2022-10-01T06:28:43.149Z,22.70
2022-10-01T06:31:11.909Z,23.00
2022-10-01T06:33:39.896Z,22.20
2022-10-01T06:36:07.937Z,21.00
2022-10-01T06:38:35.910Z,21.00
2022-10-01T06:41:05.107Z,21.60
2022-10-01T06:43:33.961Z,21.80
2022-10-01T06:46:03.262Z,21.90
2022-10-01T06:48:32.556Z,22.50
2022-10-01T06:51:00.563Z,21.10
2022-10-01T06:53:29.171Z,20.90
2022-10-01T06:55:57.435Z,21.20
2022-10-01T06:58:28.281Z,22.00
2022-10-01T07:01:02.206Z,21.90
2022-10-01T07:03:31.444Z,21.90
2022-10-01T07:06:04.156Z,24.40
2022-10-01T07:08:33.565Z,22.60
2022-10-01T07:11:05.245Z,22.60
2022-10-01T07:13:33.363Z,21.20
2022-10-01T07:16:04.243Z,20.30
2022-10-01T07:18:32.263Z,21.50
2022-10-01T07:21:00.244Z,21.40
2022-10-01T07:23:28.213Z,21.70
2022-10-01T07:25:56.173Z,20.90
2022-10-01T07:28:26.205Z,20.60
2022-10-01T07:31:11.330Z,23.10
2022-10-01T07:33:39.766Z,21.80
2022-10-01T07:36:11.027Z,20.20
2022-10-01T07:38:39.056Z,20.60
2022-10-01T07:41:07.027Z,20.90
2022-10-01T07:43:36.302Z,19.10
2022-10-01T07:46:07.311Z,18.20
2022-10-01T07:48:35.881Z,17.60
2022-10-01T07:51:04.013Z,17.80
2022-10-01T07:53:32.204Z,18.70
2022-10-01T07:56:03.738Z,18.70
2022-10-01T07:58:31.649Z,18.60
2022-10-01T08:01:03.769Z,18.90
2022-10-01T08:03:31.723Z,17.10
2022-10-01T08:05:59.820Z,17.40
2022-10-01T08:08:27.853Z,17.50
2022-10-01T08:10:55.952Z,16.60
2022-10-01T08:13:25.351Z,17.20
2022-10-01T08:15:54.989Z,15.20
2022-10-01T08:18:23.748Z,15.80
2022-10-01T08:20:52.662Z,15.50
2022-10-01T08:23:21.692Z,14.60
2022-10-01T08:25:49.562Z,15.20
2022-10-01T08:28:17.843Z,15.20
2022-10-01T08:30:45.785Z,15.20
2022-10-01T08:33:14.629Z,15.90
2022-10-01T08:35:43.902Z,15.30
2022-10-01T08:38:13.104Z,15.00
2022-10-01T08:40:50.632Z,14.80
2022-10-01T08:43:28.716Z,14.60
2022-10-01T08:46:01.288Z,13.40
2022-10-01T08:48:57.112Z,12.60
2022-10-01T08:52:27.348Z,11.70
2022-10-01T08:54:55.185Z,10.60
2022-10-01T08:57:28.098Z,10.10
2022-10-01T08:59:59.609Z,10.00
2022-10-01T09:02:41.894Z,10.50
2022-10-01T09:05:43.168Z,9.30
2022-10-01T09:08:22.944Z,8.70
2022-10-01T09:11:02.560Z,8.90
2022-10-01T09:13:36.313Z,8.70
2022-10-01T09:16:15.337Z,8.00
2022-10-01T09:19:00.679Z,8.40
2022-10-01T09:21:47.606Z,8.40
2022-10-01T09:24:29.804Z,8.50
2022-10-01T09:26:57.871Z,8.00
2022-10-01T09:29:39.307Z,8.90
2022-10-01T09:32:07.687Z,9.10
2022-10-01T09:34:40.215Z,8.70
2022-10-01T09:37:21.785Z,8.80
2022-10-01T09:40:05.369Z,8.40
2022-10-01T09:42:33.634Z,8.00
2022-10-01T09:45:01.992Z,7.30
2022-10-01T09:47:33.544Z,7.90
2022-10-01T09:50:05.937Z,7.20
2022-10-01T09:52:38.074Z,6.80
2022-10-01T09:55:18.128Z,6.90
2022-10-01T09:58:14.030Z,7.00
2022-10-01T10:00:42.705Z,6.50
2022-10-01T10:03:22.206Z,6.40
2022-10-01T10:05:51.031Z,5.70
2022-10-01T10:08:33.626Z,6.70
2022-10-01T10:11:26.892Z,6.60
2022-10-01T10:13:59.750Z,6.50
2022-10-01T10:16:31.375Z,6.30
2022-10-01T10:19:15.725Z,6.20
2022-10-01T10:21:54.684Z,5.20
2022-10-01T10:24:33.992Z,5.40
2022-10-01T10:27:06.458Z,5.60
2022-10-01T10:29:37.758Z,5.30
2022-10-01T10:32:26.890Z,4.80
2022-10-01T10:35:02.616Z,5.30
2022-10-01T10:37:37.594Z,5.70
2022-10-01T10:40:08.375Z,5.10
2022-10-01T10:42:38.975Z,4.60
2022-10-01T10:45:17.609Z,4.70
2022-10-01T10:47:49.280Z,4.90
2022-10-01T10:50:37.735Z,5.00
2022-10-01T10:53:23.092Z,4.30
2022-10-01T10:56:03.105Z,4.20
2022-10-01T10:58:33.823Z,3.40
2022-10-01T11:01:18.204Z,3.90
2022-10-01T11:03:53.385Z,3.90
2022-10-01T11:06:22.089Z,3.70
2022-10-01T11:08:59.678Z,3.80
2022-10-01T11:11:39.714Z,3.50
2022-10-01T11:14:29.711Z,3.40
2022-10-01T11:17:06.580Z,3.60
2022-10-01T11:20:03.327Z,3.40
2022-10-01T11:22:40.602Z,3.70
2022-10-01T11:25:52.878Z,4.00
2022-10-01T11:28:33.448Z,3.80
2022-10-01T11:31:29.954Z,4.00
2022-10-01T11:34:39.554Z,3.80
2022-10-01T11:37:49.917Z,4.20
2022-10-01T11:40:24.983Z,4.10
2022-10-01T11:43:00.272Z,3.90
2022-10-01T11:45:36.012Z,4.20
2022-10-01T11:48:25.838Z,4.10
2022-10-01T11:50:59.171Z,3.30
2022-10-01T11:53:33.966Z,4.00
2022-10-01T11:56:26.380Z,4.40
2022-10-01T11:59:21.796Z,3.90
2022-10-01T12:02:05.705Z,4.60
2022-10-01T12:04:40.633Z,4.60
2022-10-01T12:07:29.119Z,3.80
2022-10-01T12:10:07.222Z,4.30
2022-10-01T12:12:49.922Z,4.30
2022-10-01T12:15:24.217Z,3.90
2022-10-01T12:18:03.642Z,4.50
2022-10-01T12:20:40.880Z,4.70
2022-10-01T12:23:19.901Z,3.90
2022-10-01T12:25:56.986Z,4.30
2022-10-01T12:28:45.810Z,3.90
2022-10-01T12:31:29.627Z,4.00
2022-10-01T12:34:12.907Z,3.90
2022-10-01T12:36:47.734Z,3.50
2022-10-01T12:39:43.061Z,4.20
2022-10-01T12:42:32.517Z,3.90
2022-10-01T12:45:23.268Z,4.30
2022-10-01T12:48:00.608Z,4.50
2022-10-01T12:50:40.760Z,3.60
2022-10-01T12:53:23.853Z,4.10
2022-10-01T12:55:57.929Z,4.60
2022-10-01T12:58:38.047Z,3.90
2022-10-01T13:01:14.939Z,4.00
2022-10-01T13:03:54.876Z,4.20
2022-10-01T13:06:31.950Z,4.00
2022-10-01T13:09:10.450Z,4.50
2022-10-01T13:11:59.038Z,5.00
2022-10-01T13:14:28.434Z,4.90
2022-10-01T13:16:59.262Z,4.80
2022-10-01T13:19:42.649Z,5.10
2022-10-01T13:22:24.382Z,5.10
2022-10-01T13:25:22.845Z,4.60
2022-10-01T13:28:01.874Z,5.10
2022-10-01T13:30:45.321Z,5.20
2022-10-01T13:33:32.442Z,5.60
2022-10-01T13:36:03.387Z,5.20
2022-10-01T13:38:44.478Z,6.30
2022-10-01T13:41:23.201Z,6.40
2022-10-01T13:43:58.325Z,6.50
2022-10-01T13:46:31.359Z,5.20
2022-10-01T13:49:07.233Z,4.90
2022-10-01T13:51:37.499Z,5.20
2022-10-01T13:54:18.754Z,5.60
2022-10-01T13:56:46.921Z,5.80
2022-10-01T13:59:27.176Z,6.20
2022-10-01T14:01:55.284Z,6.10
2022-10-01T14:04:45.949Z,6.40
2022-10-01T14:07:22.808Z,6.80
2022-10-01T14:09:54.990Z,8.80
2022-10-01T14:12:53.481Z,8.60
2022-10-01T14:15:39.765Z,8.40
2022-10-01T14:18:14.914Z,7.30
2022-10-01T14:21:18.152Z,7.60
2022-10-01T14:24:23.446Z,7.20
2022-10-01T14:26:56.329Z,6.60
2022-10-01T14:29:43.240Z,6.60
2022-10-01T14:32:31.411Z,6.40
2022-10-01T14:35:33.781Z,6.80
2022-10-01T14:38:05.348Z,6.60
2022-10-01T14:40:42.080Z,7.00
2022-10-01T14:43:30.960Z,7.60
2022-10-01T14:46:00.608Z,7.30
2022-10-01T14:48:34.307Z,7.30
2022-10-01T14:51:07.601Z,6.80
2022-10-01T14:53:37.667Z,7.00
2022-10-01T14:56:14.365Z,7.10
2022-10-01T14:58:52.036Z,6.70
2022-10-01T15:01:22.193Z,7.30
2022-10-01T15:03:51.865Z,6.30
2022-10-01T15:06:27.812Z,7.10
2022-10-01T15:09:08.304Z,7.80
2022-10-01T15:11:38.123Z,7.90
2022-10-01T15:14:16.868Z,8.20
2022-10-01T15:16:44.946Z,9.10
2022-10-01T15:19:16.909Z,9.40
2022-10-01T15:21:47.986Z,10.20
2022-10-01T15:24:42.693Z,9.60
2022-10-01T15:27:14.130Z,9.60
2022-10-01T15:29:43.485Z,10.00
2022-10-01T15:32:18.197Z,10.90
2022-10-01T15:34:56.365Z,10.20
2022-10-01T15:37:33.935Z,9.50
2022-10-01T15:40:04.237Z,9.90
2022-10-01T15:42:34.639Z,10.90
2022-10-01T15:45:08.439Z,9.90
2022-10-01T15:47:37.791Z,10.10
2022-10-01T15:50:05.868Z,10.40
2022-10-01T15:52:52.689Z,10.60
2022-10-01T15:55:47.808Z,10.20
2022-10-01T15:58:15.798Z,10.30
2022-10-01T16:00:47.916Z,9.70
2022-10-01T16:03:31.355Z,10.50
2022-10-01T16:06:02.176Z,12.10
2022-10-01T16:08:37.688Z,11.60
2022-10-01T16:11:15.662Z,10.20
2022-10-01T16:13:46.866Z,10.80
2022-10-01T16:16:15.320Z,10.30
2022-10-01T16:18:43.736Z,10.20
2022-10-01T16:21:11.917Z,12.00
2022-10-01T16:23:49.543Z,12.00
2022-10-01T16:26:36.497Z,10.20
2022-10-01T16:29:06.527Z,11.40
2022-10-01T16:31:36.221Z,12.20
2022-10-01T16:34:11.822Z,12.80
2022-10-01T16:36:40.070Z,12.90
2022-10-01T16:39:08.671Z,13.40
2022-10-01T16:41:36.926Z,12.80
2022-10-01T16:44:07.976Z,12.40
2022-10-01T16:46:36.879Z,12.60
2022-10-01T16:49:15.541Z,11.80
2022-10-01T16:51:43.551Z,13.30
2022-10-01T16:54:22.882Z,13.10
2022-10-01T16:56:52.361Z,12.70
2022-10-01T16:59:23.424Z,13.30
2022-10-01T17:01:54.915Z,14.20
2022-10-01T17:04:23.837Z,13.80
2022-10-01T17:06:53.048Z,13.40
2022-10-01T17:09:21.133Z,13.20
2022-10-01T17:11:49.980Z,12.70
2022-10-01T17:14:20.061Z,12.80
2022-10-01T17:16:50.816Z,12.20
2022-10-01T17:19:19.360Z,12.50
2022-10-01T17:21:47.343Z,11.40
2022-10-01T17:24:15.393Z,11.70
2022-10-01T17:26:45.530Z,11.80
2022-10-01T17:29:13.888Z,11.40
2022-10-01T17:31:44.972Z,12.50
2022-10-01T17:34:13.368Z,12.30
2022-10-01T17:36:41.358Z,12.30
2022-10-01T17:39:09.306Z,13.60
2022-10-01T17:41:37.317Z,12.50
2022-10-01T17:44:05.246Z,12.00
2022-10-01T17:46:33.491Z,12.20
2022-10-01T17:49:01.733Z,12.40
2022-10-01T17:51:29.990Z,12.90
2022-10-01T17:53:58.387Z,12.70
2022-10-01T17:56:26.454Z,15.10
2022-10-01T17:58:55.157Z,15.10
2022-10-01T18:01:23.179Z,14.60
2022-10-01T18:04:00.403Z,12.80
2022-10-01T18:06:29.774Z,11.90
2022-10-01T18:08:57.936Z,11.40
2022-10-01T18:11:28.506Z,11.00
2022-10-01T18:13:56.675Z,11.50
2022-10-01T18:16:25.772Z,11.30
2022-10-01T18:21:48.145Z,12.20
2022-10-01T18:24:16.672Z,11.00
2022-10-01T18:26:45.893Z,12.20
2022-10-01T18:29:22.881Z,12.70
2022-10-01T18:31:54.494Z,12.20
2022-10-01T18:34:29.318Z,13.00
2022-10-01T18:37:07.303Z,12.70
2022-10-01T18:39:40.245Z,12.70
2022-10-01T18:42:39.320Z,11.80
2022-10-01T18:45:17.911Z,11.80
2022-10-01T18:48:09.487Z,13.10
2022-10-01T18:50:46.978Z,12.10
2022-10-01T18:54:12.144Z,12.00
2022-10-01T18:56:52.180Z,10.70
2022-10-01T18:59:55.470Z,10.90
2022-10-01T19:02:53.520Z,10.70
2022-10-01T19:05:42.769Z,10.70
2022-10-01T19:08:16.799Z,12.20
2022-10-01T19:10:50.256Z,11.10
2022-10-01T19:13:49.200Z,11.10
2022-10-01T19:16:38.863Z,11.20
2022-10-01T19:19:59.100Z,11.40
2022-10-01T19:22:38.083Z,11.50
2022-10-01T19:25:26.213Z,12.10
2022-10-01T19:28:09.254Z,11.90
2022-10-01T19:30:58.396Z,12.60
2022-10-01T19:33:26.561Z,13.30
2022-10-01T19:35:59.153Z,12.30
2022-10-01T19:38:37.112Z,12.70
2022-10-01T19:41:14.995Z,11.80
2022-10-01T19:44:00.115Z,11.60
2022-10-01T19:46:37.443Z,12.10
2022-10-01T19:49:20.941Z,12.50
2022-10-01T19:52:00.171Z,12.30
2022-10-01T19:54:33.679Z,11.70
2022-10-01T19:57:23.865Z,13.60
2022-10-01T19:59:56.504Z,13.20
2022-10-01T20:02:46.022Z,13.50
2022-10-01T20:05:21.107Z,13.40
2022-10-01T20:08:25.361Z,13.40
2022-10-01T20:10:59.576Z,12.10
2022-10-01T20:13:39.534Z,12.30
2022-10-01T20:16:26.357Z,11.30
2022-10-01T20:19:00.163Z,11.60
2022-10-01T20:21:32.927Z,12.40
2022-10-01T20:24:33.218Z,12.00
2022-10-01T20:27:36.547Z,11.30
2022-10-01T20:30:06.743Z,12.10
2022-10-01T20:33:24.191Z,11.10
2022-10-01T20:35:54.872Z,11.00
2022-10-01T20:38:27.912Z,11.30
2022-10-01T20:40:58.642Z,10.80
2022-10-01T20:43:34.452Z,11.10
2022-10-01T20:46:13.621Z,10.40
2022-10-01T20:48:50.015Z,8.60
2022-10-01T20:51:29.540Z,9.60
2022-10-01T20:54:08.256Z,7.90
2022-10-01T20:57:05.706Z,8.60
2022-10-01T20:59:39.161Z,7.60
2022-10-01T21:02:19.208Z,8.20
2022-10-01T21:05:13.136Z,8.80
2022-10-01T21:07:56.973Z,9.60
2022-10-01T21:10:46.249Z,10.10
2022-10-01T21:13:35.017Z,9.60
2022-10-01T21:16:32.930Z,8.60
2022-10-01T21:19:14.243Z,8.60
2022-10-01T21:21:44.786Z,8.50
2022-10-01T21:24:31.077Z,9.40
2022-10-01T21:27:30.174Z,9.20
2022-10-01T21:30:08.178Z,8.50
2022-10-01T21:33:03.651Z,7.90
2022-10-01T21:35:40.769Z,7.90
2022-10-01T21:38:11.569Z,8.70
2022-10-01T21:40:54.625Z,8.90
2022-10-01T21:43:46.318Z,8.80
2022-10-01T21:46:45.497Z,7.70
2022-10-01T21:49:20.073Z,8.20
2022-10-01T21:52:11.182Z,7.30
2022-10-01T21:54:51.134Z,7.00
2022-10-01T21:57:28.090Z,7.10
2022-10-01T22:00:18.867Z,8.60
2022-10-01T22:02:52.834Z,7.60
2022-10-01T22:05:29.615Z,7.90
2022-10-01T22:08:16.765Z,7.20
2022-10-01T22:10:48.580Z,7.00
2022-10-01T22:13:22.376Z,6.90
2022-10-01T22:15:54.414Z,7.80
2022-10-01T22:18:46.176Z,7.00
2022-10-01T22:21:37.186Z,8.70
2022-10-01T22:24:10.187Z,9.40
2022-10-01T22:26:45.300Z,9.90
2022-10-01T22:29:27.654Z,8.10
2022-10-01T22:32:01.397Z,8.70
2022-10-01T22:34:35.750Z,7.30
2022-10-01T22:37:11.711Z,7.40
2022-10-01T22:39:50.528Z,7.30
2022-10-01T22:42:30.474Z,6.80
2022-10-01T22:45:07.090Z,6.60
2022-10-01T22:48:00.385Z,6.70
2022-10-01T22:50:40.233Z,6.80
2022-10-01T22:53:33.460Z,7.10
2022-10-01T22:56:01.388Z,7.00
2022-10-01T22:58:41.231Z,7.00
2022-10-01T23:01:21.033Z,7.30
2022-10-01T23:03:53.318Z,7.60
2022-10-01T23:06:28.346Z,7.20
2022-10-01T23:09:23.968Z,7.70
2022-10-01T23:12:01.050Z,7.20
2022-10-01T23:14:47.450Z,6.80
2022-10-01T23:17:20.843Z,7.10
2022-10-01T23:20:21.938Z,6.70
2022-10-01T23:23:01.437Z,6.70
2022-10-01T23:25:38.059Z,6.90
2022-10-01T23:28:40.786Z,6.80
2022-10-01T23:31:30.160Z,6.40
2022-10-01T23:33:58.149Z,6.70
2022-10-01T23:36:46.883Z,6.70
2022-10-01T23:39:52.321Z,5.80
2022-10-01T23:42:33.191Z,6.50
2022-10-01T23:45:16.518Z,6.60
2022-10-01T23:48:03.643Z,7.10
2022-10-01T23:50:50.356Z,6.80
2022-10-01T23:53:28.451Z,6.30
2022-10-01T23:56:23.575Z,6.80
2022-10-01T23:59:01.251Z,6.60
